createdAt,value
2019-03-18T00:00:27.007Z,1004.51
2019-03-18T00:01:28.539Z,1004.55
2019-03-18T00:02:28.988Z,1004.55
2019-03-18T00:03:29.473Z,1004.54
2019-03-18T00:04:29.928Z,1004.51
2019-03-18T00:05:30.530Z,1004.51
2019-03-18T00:06:30.976Z,1004.50
2019-03-18T00:07:31.447Z,1004.55
2019-03-18T00:08:31.906Z,1004.55
2019-03-18T00:09:32.480Z,1004.55
2019-03-18T00:10:33.001Z,1004.64
2019-03-18T00:11:34.505Z,1004.65
2019-03-18T00:12:34.956Z,1004.62
2019-03-18T00:13:37.506Z,1004.63
2019-03-18T00:14:37.971Z,1004.66
2019-03-18T00:15:38.534Z,1004.65
2019-03-18T00:16:38.987Z,1004.65
2019-03-18T00:17:46.326Z,1004.67
2019-03-18T00:18:46.759Z,1004.66
2019-03-18T00:19:47.312Z,1004.76
2019-03-18T00:20:47.761Z,1004.69
2019-03-18T00:21:48.298Z,1004.71
2019-03-18T00:22:48.745Z,1004.73
2019-03-18T00:23:51.277Z,1004.79
2019-03-18T00:24:51.727Z,1004.77
2019-03-18T00:25:52.219Z,1004.76
2019-03-18T00:26:52.664Z,1004.78
2019-03-18T00:27:53.152Z,1004.71
2019-03-18T00:28:53.609Z,1004.76
2019-03-18T00:29:54.080Z,1004.79
2019-03-18T00:30:54.519Z,1004.87
2019-03-18T00:31:55.023Z,1004.82
2019-03-18T00:32:55.531Z,1004.95
2019-03-18T00:33:58.008Z,1004.88
2019-03-18T00:34:58.537Z,1004.87
2019-03-18T00:35:58.987Z,1004.78
2019-03-18T00:36:59.459Z,1004.78
2019-03-18T00:37:59.904Z,1004.75
2019-03-18T00:39:00.498Z,1004.73
2019-03-18T00:40:00.966Z,1004.75
2019-03-18T00:41:01.410Z,1004.69
2019-03-18T00:42:01.963Z,1004.74
2019-03-18T00:43:02.419Z,1004.72
2019-03-18T00:44:02.862Z,1004.83
2019-03-18T00:45:14.118Z,1004.63
2019-03-18T00:46:09.742Z,1004.72
2019-03-18T00:47:10.201Z,1004.67
2019-03-18T00:48:10.671Z,1004.71
2019-03-18T00:49:11.118Z,1004.80
2019-03-18T00:50:11.649Z,1004.76
2019-03-18T00:51:12.093Z,1004.82
2019-03-18T00:52:12.535Z,1004.73
2019-03-18T00:53:12.969Z,1004.73
2019-03-18T00:54:13.407Z,1004.79
2019-03-18T00:55:13.867Z,1004.78
2019-03-18T00:56:14.318Z,1004.78
2019-03-18T00:57:14.756Z,1004.78
2019-03-18T00:58:15.202Z,1004.85
2019-03-18T00:59:15.642Z,1004.79
2019-03-18T01:00:16.223Z,1004.81
2019-03-18T01:01:16.672Z,1004.82
2019-03-18T01:02:17.215Z,1004.82
2019-03-18T01:03:22.622Z,1004.85
2019-03-18T01:04:23.189Z,1004.85
2019-03-18T01:05:23.670Z,1004.81
2019-03-18T01:06:24.197Z,1004.83
2019-03-18T01:07:24.710Z,1004.75
2019-03-18T01:08:25.239Z,1004.88
2019-03-18T01:09:25.690Z,1004.91
2019-03-18T01:10:26.216Z,1004.89
2019-03-18T01:11:26.669Z,1004.82
2019-03-18T01:12:27.209Z,1004.98
2019-03-18T01:13:27.649Z,1004.86
2019-03-18T01:14:28.142Z,1004.84
2019-03-18T01:15:28.887Z,1004.86
2019-03-18T01:16:29.399Z,1004.92
2019-03-18T01:17:29.838Z,1005.11
2019-03-18T01:18:32.442Z,1004.96
2019-03-18T01:19:32.884Z,1004.90
2019-03-18T01:20:33.446Z,1004.89
2019-03-18T01:21:33.895Z,1004.86
2019-03-18T01:22:34.349Z,1004.87
2019-03-18T01:23:34.792Z,1004.90
2019-03-18T01:24:35.286Z,1004.79
2019-03-18T01:25:35.755Z,1004.94
2019-03-18T01:26:36.213Z,1004.90
2019-03-18T01:27:36.668Z,1004.91
2019-03-18T01:28:37.150Z,1004.84
2019-03-18T01:29:37.599Z,1004.88
2019-03-18T01:30:38.123Z,1004.87
2019-03-18T01:31:38.575Z,1004.90
2019-03-18T01:32:39.129Z,1004.90
2019-03-18T01:33:39.597Z,1004.88
2019-03-18T01:34:40.159Z,1004.90
2019-03-18T01:35:40.616Z,1004.92
2019-03-18T01:36:41.099Z,1005.02
2019-03-18T01:37:41.534Z,1004.87
2019-03-18T01:38:42.032Z,1004.81
2019-03-18T01:39:42.468Z,1004.87
2019-03-18T01:40:43.002Z,1004.86
2019-03-18T01:41:43.445Z,1004.93
2019-03-18T01:42:43.907Z,1004.86
2019-03-18T01:43:44.408Z,1004.86
2019-03-18T01:44:44.941Z,1004.87
2019-03-18T01:45:45.392Z,1004.89
2019-03-18T01:46:45.875Z,1004.91
2019-03-18T01:47:46.355Z,1004.80
2019-03-18T01:48:53.776Z,1004.86
2019-03-18T01:49:54.237Z,1004.88
2019-03-18T01:50:54.719Z,1004.83
2019-03-18T01:51:55.221Z,1004.92
2019-03-18T01:52:55.754Z,1004.77
2019-03-18T01:53:56.203Z,1004.83
2019-03-18T01:54:56.721Z,1004.80
2019-03-18T01:55:57.164Z,1004.80
2019-03-18T01:56:57.609Z,1004.87
2019-03-18T01:57:58.070Z,1004.85
2019-03-18T01:58:58.512Z,1004.84
2019-03-18T01:59:59.126Z,1004.82
2019-03-18T02:00:59.575Z,1004.87
2019-03-18T02:02:01.098Z,1004.79
2019-03-18T02:03:01.628Z,1004.81
2019-03-18T02:04:03.152Z,1004.83
2019-03-18T02:05:03.610Z,1004.81
2019-03-18T02:06:19.757Z,1004.82
2019-03-18T02:07:20.196Z,1004.86
2019-03-18T02:08:22.797Z,1004.88
2019-03-18T02:09:23.266Z,1004.87
2019-03-18T02:10:23.725Z,1004.81
2019-03-18T02:11:24.206Z,1004.83
2019-03-18T02:12:24.685Z,1004.92
2019-03-18T02:13:26.157Z,1004.87
2019-03-18T02:14:26.601Z,1004.96
2019-03-18T02:15:28.154Z,1004.95
2019-03-18T02:16:28.598Z,1004.96
2019-03-18T02:17:31.113Z,1004.92
2019-03-18T02:18:31.586Z,1005.07
2019-03-18T02:20:47.326Z,1005.14
2019-03-18T02:21:49.878Z,1005.18
2019-03-18T02:22:50.328Z,1005.17
2019-03-18T02:23:51.832Z,1005.23
2019-03-18T02:24:52.291Z,1005.32
2019-03-18T02:25:52.796Z,1005.33
2019-03-18T02:26:53.250Z,1005.32
2019-03-18T02:27:53.887Z,1005.26
2019-03-18T02:28:54.332Z,1005.29
2019-03-18T02:29:55.865Z,1005.32
2019-03-18T02:30:56.328Z,1005.38
2019-03-18T02:32:03.765Z,1005.45
2019-03-18T02:33:04.216Z,1005.39
2019-03-18T02:34:05.413Z,1005.38
2019-03-18T02:35:05.852Z,1005.39
2019-03-18T02:36:10.797Z,1005.45
2019-03-18T02:37:11.254Z,1005.31
2019-03-18T02:38:32.779Z,1005.39
2019-03-18T02:39:33.229Z,1005.25
2019-03-18T02:40:38.793Z,1005.29
2019-03-18T02:41:39.255Z,1005.27
2019-03-18T02:43:00.772Z,1005.27
2019-03-18T02:44:01.228Z,1005.28
2019-03-18T02:45:01.708Z,1005.33
2019-03-18T02:46:10.226Z,1005.28
2019-03-18T02:47:08.585Z,1005.28
2019-03-18T02:48:31.113Z,1005.37
2019-03-18T02:49:31.668Z,1005.37
2019-03-18T02:50:40.792Z,1005.33
2019-03-18T02:51:41.243Z,1005.36
2019-03-18T02:53:17.323Z,1005.42
2019-03-18T02:54:17.775Z,1005.29
2019-03-18T02:55:22.308Z,1005.43
2019-03-18T02:56:22.764Z,1005.47
2019-03-18T02:57:58.821Z,1005.31
2019-03-18T02:58:59.264Z,1005.41
2019-03-18T02:59:59.752Z,1005.49
2019-03-18T03:01:00.229Z,1005.44
2019-03-18T03:02:01.715Z,1005.51
2019-03-18T03:03:02.171Z,1005.52
2019-03-18T03:04:25.696Z,1005.44
2019-03-18T03:05:26.180Z,1005.48
2019-03-18T03:06:26.724Z,1005.41
2019-03-18T03:07:27.181Z,1005.49
2019-03-18T03:08:35.241Z,1005.54
2019-03-18T03:09:35.694Z,1005.39
2019-03-18T03:10:39.289Z,1005.53
2019-03-18T03:11:39.745Z,1005.56
2019-03-18T03:14:51.996Z,1005.55
2019-03-18T03:15:52.529Z,1005.61
2019-03-18T03:16:52.986Z,1005.58
2019-03-18T03:18:02.234Z,1005.61
2019-03-18T03:19:02.688Z,1005.71
2019-03-18T03:20:04.172Z,1005.73
2019-03-18T03:21:04.645Z,1005.79
2019-03-18T03:22:05.089Z,1005.76
2019-03-18T03:23:05.624Z,1005.73
2019-03-18T03:24:06.080Z,1005.69
2019-03-18T03:25:06.537Z,1005.71
2019-03-18T03:26:07.155Z,1005.76
2019-03-18T03:27:07.615Z,1005.77
2019-03-18T03:28:08.112Z,1005.83
2019-03-18T03:29:08.555Z,1005.82
2019-03-18T03:30:09.115Z,1005.81
2019-03-18T03:31:09.597Z,1005.90
2019-03-18T03:32:10.122Z,1005.88
2019-03-18T03:33:10.602Z,1005.93
2019-03-18T03:34:14.031Z,1005.92
2019-03-18T03:35:14.919Z,1005.89
2019-03-18T03:36:15.485Z,1005.89
2019-03-18T03:37:15.934Z,1005.93
2019-03-18T03:38:16.381Z,1005.89
2019-03-18T03:39:16.888Z,1005.95
2019-03-18T03:40:17.331Z,1005.92
2019-03-18T03:41:19.947Z,1005.92
2019-03-18T03:42:20.391Z,1005.91
2019-03-18T03:43:20.939Z,1005.94
2019-03-18T03:44:21.384Z,1006.01
2019-03-18T03:45:21.840Z,1006.03
2019-03-18T03:46:22.293Z,1006.01
2019-03-18T03:47:22.749Z,1006.05
2019-03-18T03:48:23.198Z,1006.05
2019-03-18T03:49:23.670Z,1006.05
2019-03-18T03:50:24.151Z,1006.09
2019-03-18T03:51:25.056Z,1006.07
2019-03-18T03:52:25.501Z,1006.13
2019-03-18T03:53:25.948Z,1006.08
2019-03-18T03:54:26.550Z,1006.09
2019-03-18T03:55:27.032Z,1006.09
2019-03-18T03:56:27.619Z,1006.06
2019-03-18T03:57:28.064Z,1006.10
2019-03-18T03:58:28.538Z,1006.13
2019-03-18T03:59:29.042Z,1006.12
2019-03-18T04:00:29.492Z,1006.10
2019-03-18T04:01:29.965Z,1006.15
2019-03-18T04:02:31.619Z,1006.11
2019-03-18T04:03:38.146Z,1006.16
2019-03-18T04:04:38.484Z,1006.17
2019-03-18T04:05:39.013Z,1006.16
2019-03-18T04:06:39.524Z,1006.18
2019-03-18T04:07:39.963Z,1006.19
2019-03-18T04:08:40.432Z,1006.18
2019-03-18T04:09:40.890Z,1006.17
2019-03-18T04:10:41.340Z,1006.20
2019-03-18T04:11:41.790Z,1006.18
2019-03-18T04:12:42.262Z,1006.18
2019-03-18T04:13:42.724Z,1006.19
2019-03-18T04:14:43.189Z,1006.15
2019-03-18T04:15:43.665Z,1006.22
2019-03-18T04:16:55.890Z,1006.17
2019-03-18T04:17:50.520Z,1006.23
2019-03-18T04:18:50.975Z,1006.19
2019-03-18T04:19:51.426Z,1006.21
2019-03-18T04:20:51.962Z,1006.27
2019-03-18T04:21:52.401Z,1006.25
2019-03-18T04:22:52.981Z,1006.25
2019-03-18T04:23:53.450Z,1006.24
2019-03-18T04:24:53.916Z,1006.27
2019-03-18T04:25:54.458Z,1006.28
2019-03-18T04:26:54.931Z,1006.28
2019-03-18T04:27:55.419Z,1006.30
2019-03-18T04:28:55.962Z,1006.29
2019-03-18T04:29:56.406Z,1006.35
2019-03-18T04:30:57.958Z,1006.33
2019-03-18T04:31:58.397Z,1006.33
2019-03-18T04:32:59.880Z,1006.31
2019-03-18T04:34:00.328Z,1006.32
2019-03-18T04:35:00.761Z,1006.31
2019-03-18T04:36:03.324Z,1006.37
2019-03-18T04:37:03.819Z,1006.38
2019-03-18T04:38:04.323Z,1006.37
2019-03-18T04:39:04.780Z,1006.42
2019-03-18T04:40:05.231Z,1006.40
2019-03-18T04:41:05.702Z,1006.43
2019-03-18T04:42:06.143Z,1006.37
2019-03-18T04:43:06.590Z,1006.42
2019-03-18T04:44:07.028Z,1006.39
2019-03-18T04:45:07.466Z,1006.43
2019-03-18T04:46:07.923Z,1006.50
2019-03-18T04:47:14.096Z,1006.55
2019-03-18T04:48:14.788Z,1006.47
2019-03-18T04:49:15.242Z,1006.41
2019-03-18T04:50:15.698Z,1006.44
2019-03-18T04:51:16.159Z,1006.54
2019-03-18T04:52:16.701Z,1006.53
2019-03-18T04:53:17.144Z,1006.56
2019-03-18T04:54:17.701Z,1006.48
2019-03-18T04:55:18.155Z,1006.57
2019-03-18T04:56:18.608Z,1006.56
2019-03-18T04:57:19.103Z,1006.64
2019-03-18T04:58:19.560Z,1006.59
2019-03-18T04:59:21.055Z,1006.60
2019-03-18T05:00:21.504Z,1006.70
2019-03-18T05:01:22.019Z,1006.70
2019-03-18T05:02:22.478Z,1006.75
2019-03-18T05:03:22.926Z,1006.80
2019-03-18T05:04:23.359Z,1006.76
2019-03-18T05:05:23.832Z,1006.82
2019-03-18T05:06:24.291Z,1006.81
2019-03-18T05:07:24.813Z,1006.82
2019-03-18T05:08:25.277Z,1006.73
2019-03-18T05:09:25.717Z,1006.83
2019-03-18T05:10:26.162Z,1006.86
2019-03-18T05:11:26.632Z,1006.88
2019-03-18T05:12:27.081Z,1006.88
2019-03-18T05:13:27.597Z,1006.98
2019-03-18T05:14:28.054Z,1006.91
2019-03-18T05:15:28.537Z,1007.02
2019-03-18T05:16:28.992Z,1006.92
2019-03-18T05:17:29.469Z,1007.00
2019-03-18T05:18:29.911Z,1006.94
2019-03-18T05:19:30.406Z,1007.02
2019-03-18T05:20:30.842Z,1007.07
2019-03-18T05:21:32.355Z,1007.03
2019-03-18T05:22:32.789Z,1007.06
2019-03-18T05:23:33.301Z,1007.09
2019-03-18T05:24:33.758Z,1007.05
2019-03-18T05:25:34.196Z,1007.05
2019-03-18T05:26:34.647Z,1007.12
2019-03-18T05:27:35.121Z,1007.15
2019-03-18T05:28:35.567Z,1007.18
2019-03-18T05:29:36.002Z,1007.18
2019-03-18T05:30:36.448Z,1007.21
2019-03-18T05:31:36.899Z,1007.23
2019-03-18T05:32:37.348Z,1007.24
2019-03-18T05:33:37.806Z,1007.18
2019-03-18T05:34:38.254Z,1007.09
2019-03-18T05:35:38.692Z,1007.17
2019-03-18T05:36:39.234Z,1007.13
2019-03-18T05:37:39.684Z,1007.13
2019-03-18T05:38:40.124Z,1007.10
2019-03-18T05:39:40.562Z,1007.16
2019-03-18T05:40:41.056Z,1007.25
2019-03-18T05:41:41.515Z,1007.25
2019-03-18T05:42:41.972Z,1007.22
2019-03-18T05:43:42.424Z,1007.29
2019-03-18T05:44:42.864Z,1007.30
2019-03-18T05:45:43.313Z,1007.30
2019-03-18T05:46:43.791Z,1007.45
2019-03-18T05:47:44.233Z,1007.37
2019-03-18T05:48:44.689Z,1007.45
2019-03-18T05:49:45.130Z,1007.45
2019-03-18T05:50:45.582Z,1007.50
2019-03-18T05:51:47.100Z,1007.53
2019-03-18T05:52:47.549Z,1007.56
2019-03-18T05:53:48.089Z,1007.56
2019-03-18T05:54:48.526Z,1007.55
2019-03-18T05:55:49.038Z,1007.61
2019-03-18T05:56:49.504Z,1007.57
2019-03-18T05:57:51.042Z,1007.55
2019-03-18T05:58:51.483Z,1007.49
2019-03-18T05:59:52.027Z,1007.57
2019-03-18T06:00:52.476Z,1007.64
2019-03-18T06:01:53.001Z,1007.61
2019-03-18T06:02:53.462Z,1007.63
2019-03-18T06:03:54.007Z,1007.68
2019-03-18T06:04:55.227Z,1007.66
2019-03-18T06:05:56.817Z,1007.67
2019-03-18T06:06:57.283Z,1007.68
2019-03-18T06:07:57.813Z,1007.67
2019-03-18T06:08:58.250Z,1007.74
2019-03-18T06:10:19.741Z,1007.72
2019-03-18T06:11:20.765Z,1007.74
2019-03-18T06:12:21.338Z,1007.72
2019-03-18T06:13:21.770Z,1007.74
2019-03-18T06:14:22.336Z,1007.82
2019-03-18T06:15:22.775Z,1007.88
2019-03-18T06:16:23.236Z,1007.92
2019-03-18T06:17:23.701Z,1007.82
2019-03-18T06:18:24.143Z,1007.87
2019-03-18T06:19:24.587Z,1007.93
2019-03-18T06:20:25.089Z,1007.86
2019-03-18T06:21:25.580Z,1007.93
2019-03-18T06:22:26.046Z,1007.84
2019-03-18T06:23:26.499Z,1007.83
2019-03-18T06:24:26.954Z,1007.90
2019-03-18T06:25:27.402Z,1007.94
2019-03-18T06:26:27.947Z,1007.98
2019-03-18T06:27:28.411Z,1007.99
2019-03-18T06:28:28.857Z,1007.99
2019-03-18T06:29:29.306Z,1008.03
2019-03-18T06:30:29.736Z,1008.05
2019-03-18T06:31:30.209Z,1008.00
2019-03-18T06:32:30.667Z,1008.12
2019-03-18T06:33:31.108Z,1008.11
2019-03-18T06:34:31.549Z,1008.06
2019-03-18T06:35:32.094Z,1008.14
2019-03-18T06:36:32.529Z,1008.08
2019-03-18T06:37:33.034Z,1008.18
2019-03-18T06:38:33.477Z,1008.18
2019-03-18T06:39:33.939Z,1008.16
2019-03-18T06:40:34.381Z,1008.13
2019-03-18T06:41:34.878Z,1008.17
2019-03-18T06:42:35.358Z,1008.15
2019-03-18T06:43:35.910Z,1008.16
2019-03-18T06:44:36.361Z,1008.22
2019-03-18T06:45:36.806Z,1008.25
2019-03-18T06:46:37.240Z,1008.27
2019-03-18T06:47:37.710Z,1008.27
2019-03-18T06:48:45.163Z,1008.30
2019-03-18T06:49:45.619Z,1008.36
2019-03-18T06:50:46.124Z,1008.37
2019-03-18T06:51:46.615Z,1008.40
2019-03-18T06:52:47.058Z,1008.41
2019-03-18T06:53:47.504Z,1008.47
2019-03-18T06:54:47.949Z,1008.38
2019-03-18T06:55:48.393Z,1008.40
2019-03-18T06:56:48.855Z,1008.33
2019-03-18T06:57:49.300Z,1008.50
2019-03-18T06:58:49.741Z,1008.53
2019-03-18T06:59:50.185Z,1008.48
2019-03-18T07:00:50.717Z,1008.49
2019-03-18T07:01:51.180Z,1008.52
2019-03-18T07:03:07.676Z,1008.52
2019-03-18T07:04:08.113Z,1008.49
2019-03-18T07:05:08.580Z,1008.53
2019-03-18T07:06:09.028Z,1008.61
2019-03-18T07:07:09.517Z,1008.60
2019-03-18T07:08:09.964Z,1008.64
2019-03-18T07:09:10.408Z,1008.63
2019-03-18T07:10:10.849Z,1008.65
2019-03-18T07:11:11.299Z,1008.67
2019-03-18T07:12:11.763Z,1008.68
2019-03-18T07:13:12.248Z,1008.73
2019-03-18T07:14:12.754Z,1008.72
2019-03-18T07:15:13.212Z,1008.68
2019-03-18T07:16:13.659Z,1008.73
2019-03-18T07:17:14.131Z,1008.75
2019-03-18T07:18:18.474Z,1008.78
2019-03-18T07:19:19.225Z,1008.85
2019-03-18T07:20:19.685Z,1008.84
2019-03-18T07:21:20.192Z,1008.87
2019-03-18T07:22:20.647Z,1008.87
2019-03-18T07:23:21.203Z,1008.85
2019-03-18T07:24:21.657Z,1008.91
2019-03-18T07:25:22.112Z,1008.98
2019-03-18T07:26:22.553Z,1008.98
2019-03-18T07:27:23.041Z,1008.96
2019-03-18T07:28:23.501Z,1009.04
2019-03-18T07:29:23.948Z,1008.97
2019-03-18T07:30:24.408Z,1009.00
2019-03-18T07:31:24.869Z,1009.03
2019-03-18T07:32:25.408Z,1009.02
2019-03-18T07:33:25.871Z,1009.08
2019-03-18T07:34:26.326Z,1009.06
2019-03-18T07:35:26.770Z,1009.09
2019-03-18T07:36:27.201Z,1009.09
2019-03-18T07:37:27.657Z,1009.13
2019-03-18T07:38:28.145Z,1009.20
2019-03-18T07:39:28.589Z,1009.14
2019-03-18T07:40:29.033Z,1009.21
2019-03-18T07:41:29.483Z,1009.25
2019-03-18T07:42:30.036Z,1009.20
2019-03-18T07:43:30.573Z,1009.27
2019-03-18T07:44:32.115Z,1009.31
2019-03-18T07:45:32.567Z,1009.28
2019-03-18T07:46:33.022Z,1009.28
2019-03-18T07:47:33.498Z,1009.32
2019-03-18T07:48:33.986Z,1009.32
2019-03-18T07:49:34.460Z,1009.29
2019-03-18T07:50:34.982Z,1009.37
2019-03-18T07:51:35.422Z,1009.32
2019-03-18T07:52:35.893Z,1009.29
2019-03-18T07:53:36.362Z,1009.27
2019-03-18T07:54:36.817Z,1009.29
2019-03-18T07:55:37.306Z,1009.35
2019-03-18T07:56:37.765Z,1009.34
2019-03-18T07:57:38.268Z,1009.39
2019-03-18T07:58:38.703Z,1009.39
2019-03-18T07:59:40.196Z,1009.39
2019-03-18T08:00:40.666Z,1009.39
2019-03-18T08:01:41.233Z,1009.36
2019-03-18T08:02:41.726Z,1009.40
2019-03-18T08:03:43.199Z,1009.43
2019-03-18T08:04:43.654Z,1009.39
2019-03-18T08:05:44.130Z,1009.46
2019-03-18T08:06:44.622Z,1009.38
2019-03-18T08:07:46.122Z,1009.46
2019-03-18T08:08:46.650Z,1009.45
2019-03-18T08:09:47.128Z,1009.42
2019-03-18T08:10:47.608Z,1009.49
2019-03-18T08:11:48.173Z,1009.50
2019-03-18T08:12:48.650Z,1009.51
2019-03-18T08:13:49.243Z,1009.49
2019-03-18T08:14:49.691Z,1009.53
2019-03-18T08:15:50.133Z,1009.63
2019-03-18T08:16:50.576Z,1009.59
2019-03-18T08:17:51.119Z,1009.60
2019-03-18T08:18:51.585Z,1009.59
2019-03-18T08:19:52.032Z,1009.52
2019-03-18T08:20:52.527Z,1009.56
2019-03-18T08:21:52.972Z,1009.57
2019-03-18T08:22:53.592Z,1009.73
2019-03-18T08:23:54.037Z,1009.66
2019-03-18T08:24:54.485Z,1009.71
2019-03-18T08:25:54.952Z,1009.67
2019-03-18T08:26:55.402Z,1009.58
2019-03-18T08:27:55.874Z,1009.66
2019-03-18T08:28:56.366Z,1009.71
2019-03-18T08:29:56.809Z,1009.71
2019-03-18T08:30:57.307Z,1009.74
2019-03-18T08:31:57.763Z,1009.72
2019-03-18T08:32:58.278Z,1009.71
2019-03-18T08:33:58.730Z,1009.72
2019-03-18T08:34:59.276Z,1009.78
2019-03-18T08:35:59.717Z,1009.70
2019-03-18T08:37:08.206Z,1009.72
2019-03-18T08:38:08.696Z,1009.81
2019-03-18T08:39:10.285Z,1009.80
2019-03-18T08:40:10.733Z,1009.74
2019-03-18T08:41:12.196Z,1009.74
2019-03-18T08:42:12.635Z,1009.77
2019-03-18T08:43:13.090Z,1009.67
2019-03-18T08:44:13.574Z,1009.83
2019-03-18T08:45:14.050Z,1009.79
2019-03-18T08:46:14.615Z,1009.84
2019-03-18T08:47:15.062Z,1009.87
2019-03-18T08:48:15.544Z,1009.83
2019-03-18T08:49:15.992Z,1009.84
2019-03-18T08:50:18.485Z,1009.79
2019-03-18T08:51:19.122Z,1009.86
2019-03-18T08:52:19.642Z,1009.85
2019-03-18T08:53:20.201Z,1009.89
2019-03-18T08:54:20.650Z,1009.86
2019-03-18T08:55:21.105Z,1009.92
2019-03-18T08:56:21.545Z,1009.92
2019-03-18T08:57:22.032Z,1009.94
2019-03-18T08:58:22.500Z,1009.98
2019-03-18T08:59:22.947Z,1009.91
2019-03-18T09:00:23.399Z,1010.01
2019-03-18T09:01:23.909Z,1010.03
2019-03-18T09:02:24.364Z,1009.95
2019-03-18T09:03:24.980Z,1009.93
2019-03-18T09:04:25.455Z,1009.99
2019-03-18T09:05:25.931Z,1010.02
2019-03-18T09:06:26.371Z,1009.94
2019-03-18T09:07:26.887Z,1009.92
2019-03-18T09:08:27.409Z,1009.93
2019-03-18T09:09:27.923Z,1009.91
2019-03-18T09:10:28.414Z,1009.93
2019-03-18T09:11:28.966Z,1009.90
2019-03-18T09:12:29.400Z,1010.06
2019-03-18T09:13:31.958Z,1010.00
2019-03-18T09:14:32.667Z,1010.01
2019-03-18T09:15:33.185Z,1009.98
2019-03-18T09:16:33.638Z,1010.07
2019-03-18T09:17:34.222Z,1009.99
2019-03-18T09:18:34.695Z,1010.06
2019-03-18T09:19:35.309Z,1010.01
2019-03-18T09:20:35.771Z,1010.02
2019-03-18T09:21:36.290Z,1009.99
2019-03-18T09:22:36.745Z,1010.04
2019-03-18T09:23:37.373Z,1009.98
2019-03-18T09:24:37.842Z,1010.06
2019-03-18T09:25:38.365Z,1010.15
2019-03-18T09:26:38.817Z,1010.13
2019-03-18T09:27:39.257Z,1010.16
2019-03-18T09:28:39.719Z,1010.10
2019-03-18T09:29:41.270Z,1010.14
2019-03-18T09:30:41.826Z,1010.17
2019-03-18T09:31:44.412Z,1010.17
2019-03-18T09:32:44.903Z,1010.29
2019-03-18T09:33:45.466Z,1010.19
2019-03-18T09:34:45.910Z,1010.20
2019-03-18T09:35:46.355Z,1010.26
2019-03-18T09:36:46.813Z,1010.22
2019-03-18T09:37:47.261Z,1010.28
2019-03-18T09:38:47.799Z,1010.26
2019-03-18T09:39:48.299Z,1010.22
2019-03-18T09:40:48.793Z,1010.22
2019-03-18T09:41:49.335Z,1010.25
2019-03-18T09:42:49.806Z,1010.24
2019-03-18T09:43:50.370Z,1010.29
2019-03-18T09:44:50.812Z,1010.27
2019-03-18T09:45:51.300Z,1010.26
2019-03-18T09:46:51.780Z,1010.26
2019-03-18T09:47:52.378Z,1010.30
2019-03-18T09:48:52.816Z,1010.36
2019-03-18T09:49:53.286Z,1010.33
2019-03-18T09:50:53.731Z,1010.36
2019-03-18T09:51:55.255Z,1010.37
2019-03-18T09:52:56.015Z,1010.35
2019-03-18T09:53:56.582Z,1010.35
2019-03-18T09:54:57.016Z,1010.32
2019-03-18T09:55:58.559Z,1010.41
2019-03-18T09:56:59.011Z,1010.35
2019-03-18T09:57:59.516Z,1010.37
2019-03-18T09:58:59.959Z,1010.41
2019-03-18T10:00:00.512Z,1010.47
2019-03-18T10:01:00.994Z,1010.42
2019-03-18T10:02:03.499Z,1010.40
2019-03-18T10:03:03.974Z,1010.43
2019-03-18T10:04:04.527Z,1010.49
2019-03-18T10:05:04.963Z,1010.51
2019-03-18T10:06:05.402Z,1010.56
2019-03-18T10:07:05.854Z,1010.50
2019-03-18T10:08:06.315Z,1010.55
2019-03-18T10:09:06.829Z,1010.59
2019-03-18T10:10:07.290Z,1010.48
2019-03-18T10:11:07.863Z,1010.54
2019-03-18T10:12:08.308Z,1010.47
2019-03-18T10:13:08.834Z,1010.50
2019-03-18T10:14:09.271Z,1010.52
2019-03-18T10:15:10.763Z,1010.49
2019-03-18T10:16:11.221Z,1010.48
2019-03-18T10:17:11.813Z,1010.50
2019-03-18T10:18:12.291Z,1010.51
2019-03-18T10:19:12.829Z,1010.57
2019-03-18T10:20:13.265Z,1010.51
2019-03-18T10:21:13.763Z,1010.58
2019-03-18T10:22:14.210Z,1010.56
2019-03-18T10:23:18.218Z,1010.55
2019-03-18T10:24:18.657Z,1010.60
2019-03-18T10:25:20.139Z,1010.49
2019-03-18T10:26:20.631Z,1010.61
2019-03-18T10:27:21.185Z,1010.55
2019-03-18T10:28:21.650Z,1010.44
2019-03-18T10:29:24.159Z,1010.57
2019-03-18T10:30:24.608Z,1010.57
2019-03-18T10:31:25.109Z,1010.57
2019-03-18T10:32:25.583Z,1010.61
2019-03-18T10:33:26.169Z,1010.58
2019-03-18T10:34:26.621Z,1010.62
2019-03-18T10:35:50.222Z,1010.61
2019-03-18T10:36:50.741Z,1010.66
2019-03-18T10:37:51.263Z,1010.67
2019-03-18T10:38:52.907Z,1010.67
2019-03-18T10:39:53.622Z,1010.62
2019-03-18T10:40:54.081Z,1010.61
2019-03-18T10:42:01.304Z,1010.75
2019-03-18T10:43:01.749Z,1010.65
2019-03-18T10:44:02.404Z,1010.78
2019-03-18T10:45:02.859Z,1010.74
2019-03-18T10:46:03.478Z,1010.75
2019-03-18T10:47:03.919Z,1010.88
2019-03-18T10:48:04.356Z,1010.78
2019-03-18T10:49:04.850Z,1010.75
2019-03-18T10:50:05.298Z,1010.77
2019-03-18T10:51:05.988Z,1010.69
2019-03-18T10:52:06.460Z,1010.67
2019-03-18T10:53:07.180Z,1010.71
2019-03-18T10:54:07.692Z,1010.66
2019-03-18T10:55:08.223Z,1010.70
2019-03-18T10:56:08.691Z,1010.69
2019-03-18T10:57:09.145Z,1010.68
2019-03-18T10:58:09.590Z,1010.66
2019-03-18T10:59:10.062Z,1010.69
2019-03-18T11:00:10.621Z,1010.60
2019-03-18T11:01:11.062Z,1010.63
2019-03-18T11:02:11.514Z,1010.62
2019-03-18T11:03:11.987Z,1010.64
2019-03-18T11:04:12.453Z,1010.74
2019-03-18T11:05:12.900Z,1010.78
2019-03-18T11:06:13.535Z,1010.76
2019-03-18T11:07:13.983Z,1010.76
2019-03-18T11:08:14.468Z,1010.84
2019-03-18T11:09:14.928Z,1010.81
2019-03-18T11:10:15.404Z,1010.76
2019-03-18T11:11:15.852Z,1010.70
2019-03-18T11:12:16.471Z,1010.74
2019-03-18T11:13:17.017Z,1010.83
2019-03-18T11:14:17.629Z,1010.74
2019-03-18T11:15:18.085Z,1010.84
2019-03-18T11:16:18.618Z,1010.80
2019-03-18T11:17:19.055Z,1010.76
2019-03-18T11:18:19.600Z,1010.82
2019-03-18T11:19:20.067Z,1010.78
2019-03-18T11:20:20.587Z,1010.82
2019-03-18T11:21:21.050Z,1010.88
2019-03-18T11:22:21.580Z,1010.83
2019-03-18T11:23:22.059Z,1010.89
2019-03-18T11:24:22.631Z,1010.93
2019-03-18T11:25:23.074Z,1010.98
2019-03-18T11:26:23.510Z,1010.99
2019-03-18T11:27:23.962Z,1010.95
2019-03-18T11:28:24.476Z,1011.03
2019-03-18T11:29:24.921Z,1011.00
2019-03-18T11:30:25.472Z,1011.08
2019-03-18T11:31:25.927Z,1011.08
2019-03-18T11:32:26.409Z,1011.04
2019-03-18T11:33:28.551Z,1010.97
2019-03-18T11:34:31.267Z,1011.04
2019-03-18T11:35:31.714Z,1011.13
2019-03-18T11:36:32.293Z,1011.11
2019-03-18T11:37:32.762Z,1011.10
2019-03-18T11:38:33.429Z,1011.07
2019-03-18T11:39:33.867Z,1011.10
2019-03-18T11:40:34.454Z,1011.09
2019-03-18T11:41:34.902Z,1011.13
2019-03-18T11:42:35.384Z,1011.16
2019-03-18T11:43:35.853Z,1011.15
2019-03-18T11:44:36.436Z,1011.13
2019-03-18T11:45:36.887Z,1011.15
2019-03-18T11:46:40.241Z,1011.12
2019-03-18T11:47:41.082Z,1011.17
2019-03-18T11:48:41.613Z,1011.17
2019-03-18T11:49:42.059Z,1011.16
2019-03-18T11:50:42.614Z,1011.26
2019-03-18T11:51:43.058Z,1011.19
2019-03-18T11:52:43.543Z,1011.27
2019-03-18T11:53:44.013Z,1011.25
2019-03-18T11:54:44.589Z,1011.17
2019-03-18T11:55:45.031Z,1011.28
2019-03-18T11:56:45.583Z,1011.24
2019-03-18T11:57:46.036Z,1011.20
2019-03-18T11:58:46.655Z,1011.27
2019-03-18T11:59:47.128Z,1011.31
2019-03-18T12:00:47.756Z,1011.27
2019-03-18T12:01:48.213Z,1011.25
2019-03-18T12:02:48.810Z,1011.31
2019-03-18T12:03:49.282Z,1011.28
2019-03-18T12:04:49.827Z,1011.31
2019-03-18T12:05:50.285Z,1011.34
2019-03-18T12:06:50.948Z,1011.32
2019-03-18T12:07:51.420Z,1011.33
2019-03-18T12:08:52.035Z,1011.32
2019-03-18T12:09:52.497Z,1011.31
2019-03-18T12:10:53.036Z,1011.29
2019-03-18T12:11:53.474Z,1011.28
2019-03-18T12:12:54.090Z,1011.22
2019-03-18T12:13:54.622Z,1011.28
2019-03-18T12:14:55.325Z,1011.32
2019-03-18T12:15:55.791Z,1011.25
2019-03-18T12:16:58.411Z,1011.31
2019-03-18T12:17:58.852Z,1011.35
2019-03-18T12:18:59.481Z,1011.30
2019-03-18T12:19:59.934Z,1011.32
2019-03-18T12:21:01.520Z,1011.33
2019-03-18T12:22:01.974Z,1011.31